Mirror Lake, New Hampshire
Current Conditions -  °F | °C
As of 11:55 AM on Friday 28 Nov 2014 (Local Time) from KLCI Reporting Station
Broken Clouds Broken Clouds  
Wind Chill: 30°   Ceiling: 4300
Heat Index: 30°   Visibility: 10mi
Dew Point: 19°   Wind: 0mph
Humidity: 64%   Direction: NA
Pressure: 30.01"   Gusts: NA
Location:  43.62°N, 71.28°W
Report Text: KLCI 281655Z AUTO 00000KT 10SM FEW030 BKN043 M01/M07 A3001 RMK AO1
Loading
Personal Weather Stations






























Interactive Weather Map New forecast layout! Learn more

10-Day Weather Forecast

Advertisements
Track Severe Weather on mobile